createdAt,value
2022-11-22T00:01:53.925Z,18.87
2022-11-22T00:05:54.318Z,18.03
2022-11-22T00:09:54.556Z,18.87
2022-11-22T00:13:54.672Z,13.77
2022-11-22T00:17:57.371Z,17.77
2022-11-22T00:21:57.478Z,20.60
2022-11-22T00:25:57.870Z,19.60
2022-11-22T00:29:58.009Z,18.10
2022-11-22T00:34:00.786Z,17.53
2022-11-22T00:38:00.860Z,20.77
2022-11-22T00:42:01.997Z,18.77
2022-11-22T00:46:02.958Z,19.13
2022-11-22T00:50:06.378Z,16.70
2022-11-22T00:54:06.771Z,18.20
2022-11-22T00:58:06.904Z,19.50
2022-11-22T01:02:07.050Z,24.67
2022-11-22T01:06:09.745Z,21.80
2022-11-22T01:10:11.631Z,19.97
2022-11-22T01:14:11.749Z,18.10
2022-11-22T01:18:11.889Z,16.83
2022-11-22T01:22:14.796Z,17.97
2022-11-22T01:26:16.113Z,16.40
2022-11-22T01:30:17.242Z,18.83
2022-11-22T01:34:17.568Z,16.90
2022-11-22T01:38:20.527Z,15.57
2022-11-22T01:42:20.827Z,15.30
2022-11-22T01:46:37.085Z,17.70
2022-11-22T01:50:42.638Z,14.63
2022-11-22T01:54:50.753Z,16.73
2022-11-22T01:58:59.791Z,19.13
2022-11-22T02:03:05.468Z,17.33
2022-11-22T02:07:13.878Z,14.83
2022-11-22T02:11:17.112Z,19.47
2022-11-22T02:15:17.621Z,19.77
2022-11-22T02:19:24.894Z,18.67
2022-11-22T02:23:37.908Z,22.33
2022-11-22T02:27:40.647Z,55.90
2022-11-22T02:31:45.436Z,99.10
2022-11-22T02:35:47.041Z,112.77
2022-11-22T02:39:51.064Z,82.03
2022-11-22T02:43:53.795Z,65.47
2022-11-22T02:47:53.873Z,39.23
2022-11-22T02:51:56.009Z,47.93
2022-11-22T02:55:56.093Z,46.70
2022-11-22T02:59:58.788Z,37.77
2022-11-22T03:03:58.904Z,31.33
2022-11-22T03:07:59.107Z,38.93
2022-11-22T03:11:59.512Z,27.57
2022-11-22T03:16:02.416Z,27.60
2022-11-22T03:20:02.597Z,27.77
2022-11-22T03:24:03.074Z,23.03
2022-11-22T03:28:03.200Z,20.37
2022-11-22T03:32:06.024Z,22.47
2022-11-22T03:36:07.468Z,18.30
2022-11-22T03:40:09.474Z,20.00
2022-11-22T03:44:10.154Z,18.73
2022-11-22T03:48:12.860Z,17.53
2022-11-22T03:52:13.051Z,18.73
2022-11-22T03:56:13.343Z,15.83
2022-11-22T04:00:15.848Z,14.63
2022-11-22T04:04:19.732Z,14.37
2022-11-22T04:08:20.030Z,14.77
2022-11-22T04:12:20.388Z,16.37
2022-11-22T04:16:20.707Z,14.27
2022-11-22T04:20:39.151Z,16.77
2022-11-22T04:24:51.772Z,14.73
2022-11-22T04:29:09.127Z,12.70
2022-11-22T04:33:10.105Z,14.70
2022-11-22T04:37:12.879Z,13.37
2022-11-22T04:41:13.257Z,14.90
2022-11-22T04:45:14.182Z,13.47
2022-11-22T04:49:14.346Z,13.40
2022-11-22T04:53:15.264Z,13.30
2022-11-22T04:57:15.404Z,16.17
2022-11-22T05:01:15.622Z,15.90
2022-11-22T05:05:15.802Z,13.60
2022-11-22T05:09:18.857Z,17.00
2022-11-22T05:13:19.019Z,13.60
2022-11-22T05:17:19.156Z,14.73
2022-11-22T05:21:19.254Z,13.60
2022-11-22T05:25:25.476Z,12.70
2022-11-22T05:29:26.072Z,17.83
2022-11-22T05:33:26.210Z,12.67
2022-11-22T05:37:26.848Z,18.37
2022-11-22T05:41:29.680Z,19.67
2022-11-22T05:45:30.048Z,28.43
2022-11-22T05:49:30.510Z,43.20
2022-11-22T05:53:30.762Z,44.97
2022-11-22T05:57:36.004Z,29.63
2022-11-22T06:01:36.169Z,29.17
2022-11-22T06:05:36.282Z,27.00
2022-11-22T06:09:36.453Z,20.93
2022-11-22T06:13:42.117Z,22.20
2022-11-22T06:17:42.307Z,19.47
2022-11-22T06:21:42.771Z,20.37
2022-11-22T06:25:43.141Z,19.33
2022-11-22T06:29:46.077Z,24.43
2022-11-22T06:33:47.332Z,19.87
2022-11-22T06:37:47.490Z,24.97
2022-11-22T06:41:47.927Z,20.17
2022-11-22T06:45:50.821Z,21.93
2022-11-22T06:49:50.976Z,22.00
2022-11-22T06:53:52.580Z,23.83
2022-11-22T06:57:53.801Z,23.50
2022-11-22T07:01:59.016Z,21.50
2022-11-22T07:06:03.154Z,19.30
2022-11-22T07:10:03.227Z,20.47
2022-11-22T07:14:08.749Z,20.73
2022-11-22T07:18:12.047Z,19.83
2022-11-22T07:22:12.169Z,18.47
2022-11-22T07:26:16.131Z,19.60
2022-11-22T07:30:17.978Z,20.70
2022-11-22T07:34:23.899Z,19.90
2022-11-22T07:38:59.329Z,19.67
2022-11-22T07:43:08.264Z,24.30
2022-11-22T07:47:08.411Z,20.33
2022-11-22T07:51:14.763Z,21.83
2022-11-22T07:55:14.890Z,21.27
2022-11-22T07:59:15.141Z,26.63
2022-11-22T08:03:17.794Z,29.70
2022-11-22T08:07:21.144Z,23.10
2022-11-22T08:11:21.515Z,17.77
2022-11-22T08:15:22.225Z,18.03
2022-11-22T08:19:22.683Z,18.17
2022-11-22T08:23:25.735Z,17.50
2022-11-22T08:27:27.803Z,22.43
2022-11-22T08:31:29.655Z,26.13
2022-11-22T08:35:30.104Z,19.17
2022-11-22T08:39:33.376Z,21.80
2022-11-22T08:43:33.787Z,18.07
2022-11-22T08:47:38.138Z,17.43
2022-11-22T08:51:45.506Z,21.93
2022-11-22T08:56:04.217Z,16.97
2022-11-22T09:00:04.626Z,15.90
2022-11-22T09:04:04.719Z,15.03
2022-11-22T09:12:27.763Z,15.77
2022-11-22T09:16:31.822Z,16.27
2022-11-22T09:20:32.575Z,21.27
2022-11-22T09:24:37.248Z,20.60
2022-11-22T09:28:40.729Z,16.37
2022-11-22T09:32:41.020Z,15.30
2022-11-22T09:36:44.389Z,19.70
2022-11-22T09:40:49.804Z,14.93
2022-11-22T09:45:31.344Z,14.73
2022-11-22T09:49:40.200Z,16.93
2022-11-22T09:53:49.381Z,14.47
2022-11-22T09:57:55.089Z,13.63
2022-11-22T10:02:18.226Z,13.63
2022-11-22T10:06:30.070Z,17.40
2022-11-22T10:10:41.317Z,15.63
2022-11-22T10:14:55.963Z,15.40
2022-11-22T10:19:06.964Z,15.37
2022-11-22T10:23:19.778Z,16.33
2022-11-22T10:27:20.007Z,14.13
2022-11-22T10:31:29.225Z,15.63
2022-11-22T10:35:54.198Z,16.37
2022-11-22T10:40:16.180Z,17.60
2022-11-22T10:44:37.367Z,14.17
2022-11-22T10:48:49.094Z,13.43
2022-11-22T10:53:07.871Z,13.20
2022-11-22T10:57:21.689Z,15.23
2022-11-22T11:01:36.109Z,14.53
2022-11-22T11:06:15.287Z,17.17
2022-11-22T11:20:52.149Z,12.83
2022-11-22T11:24:55.476Z,14.07
2022-11-22T11:29:41.642Z,35.57
2022-11-22T11:33:44.450Z,19.00
2022-11-22T11:37:44.682Z,12.00
2022-11-22T11:41:44.830Z,17.03
2022-11-22T11:45:47.738Z,12.70
2022-11-22T11:49:54.446Z,11.40
2022-11-22T11:54:03.841Z,14.33
2022-11-22T11:58:07.581Z,13.63
2022-11-22T12:02:18.836Z,14.53
2022-11-22T12:06:20.122Z,12.50
2022-11-22T12:10:46.811Z,14.93
2022-11-22T12:15:10.753Z,12.60
2022-11-22T12:19:27.543Z,14.53
2022-11-22T12:23:36.336Z,14.63
2022-11-22T12:27:36.671Z,14.97
2022-11-22T12:31:44.409Z,13.40
2022-11-22T12:35:49.466Z,12.43
2022-11-22T12:39:56.206Z,16.13
2022-11-22T12:44:02.690Z,14.63
2022-11-22T12:48:09.358Z,18.50
2022-11-22T12:52:26.425Z,15.90
2022-11-22T12:56:34.042Z,15.13
2022-11-22T13:00:44.694Z,15.67
2022-11-22T13:04:59.922Z,15.07
2022-11-22T13:09:08.312Z,18.47
2022-11-22T13:13:25.231Z,15.03
2022-11-22T13:17:30.778Z,18.23
2022-11-22T13:21:46.483Z,20.53
2022-11-22T13:26:14.555Z,15.63
2022-11-22T13:30:23.837Z,17.43
2022-11-22T13:34:29.380Z,16.27
2022-11-22T13:38:31.301Z,17.83
2022-11-22T13:42:35.032Z,17.07
2022-11-22T13:46:56.838Z,15.40
2022-11-22T13:51:06.516Z,13.63
2022-11-22T13:55:36.033Z,17.63
2022-11-22T13:59:46.605Z,17.20
2022-11-22T14:03:47.286Z,18.47
2022-11-22T14:07:52.159Z,18.33
2022-11-22T14:12:26.360Z,20.13
2022-11-22T14:16:53.587Z,20.80
2022-11-22T14:21:07.280Z,25.80
2022-11-22T14:25:33.378Z,23.33
2022-11-22T14:30:05.880Z,24.03
2022-11-22T14:34:27.658Z,22.30
2022-11-22T14:38:35.822Z,24.23
2022-11-22T14:42:55.786Z,21.27
2022-11-22T14:47:04.448Z,19.33
2022-11-22T14:51:18.175Z,20.33
2022-11-22T14:55:23.193Z,17.60
2022-11-22T15:00:03.187Z,25.40
2022-11-22T15:09:13.831Z,22.47
2022-11-22T15:09:52.945Z,26.77
2022-11-22T15:14:46.912Z,34.53
2022-11-22T15:59:03.865Z,47.47
2022-11-22T16:03:07.119Z,48.70
2022-11-22T16:07:10.286Z,52.70
2022-11-22T16:11:19.477Z,55.33
2022-11-22T16:15:36.342Z,55.53
2022-11-22T16:19:39.230Z,42.63
2022-11-22T16:23:40.979Z,38.97
2022-11-22T16:27:49.118Z,31.03
2022-11-22T16:31:49.843Z,44.43
2022-11-22T16:35:57.021Z,32.23
2022-11-22T16:39:57.236Z,32.50
2022-11-22T16:44:00.003Z,34.47
2022-11-22T16:48:24.537Z,41.40
2022-11-22T16:52:23.124Z,45.53
2022-11-22T16:56:26.600Z,38.70
2022-11-22T17:00:27.446Z,40.47
2022-11-22T17:04:28.272Z,37.97
2022-11-22T17:08:31.111Z,29.53
2022-11-22T17:12:33.820Z,34.20
2022-11-22T17:16:34.415Z,30.87
2022-11-22T17:20:34.760Z,33.90
2022-11-22T17:24:38.107Z,34.27
2022-11-22T17:28:38.518Z,30.50
2022-11-22T17:32:40.313Z,31.70
2022-11-22T17:36:40.898Z,36.50
2022-11-22T17:40:44.835Z,35.90
2022-11-22T17:44:44.985Z,39.33
2022-11-22T17:48:45.239Z,38.83
2022-11-22T17:52:45.364Z,31.83
2022-11-22T17:56:48.092Z,28.57
2022-11-22T18:00:48.208Z,32.47
2022-11-22T18:04:48.302Z,37.10
2022-11-22T18:08:48.721Z,28.73
2022-11-22T18:13:19.799Z,29.93
2022-11-22T18:17:12.182Z,32.80
2022-11-22T18:21:17.139Z,35.83
2022-11-22T18:25:18.007Z,37.10
2022-11-22T18:29:42.098Z,45.60
2022-11-22T18:33:40.862Z,41.20
2022-11-22T18:37:41.542Z,34.63
2022-11-22T18:41:47.091Z,43.53
2022-11-22T18:45:49.937Z,41.80
2022-11-22T18:49:50.940Z,33.40
2022-11-22T18:53:51.242Z,40.63
2022-11-22T18:57:53.940Z,46.33
2022-11-22T19:01:56.953Z,44.67
2022-11-22T19:05:57.126Z,45.37
2022-11-22T19:09:57.364Z,41.53
2022-11-22T19:13:57.627Z,38.80
2022-11-22T19:18:00.471Z,43.70
2022-11-22T19:22:00.670Z,40.83
2022-11-22T19:26:00.969Z,52.93
2022-11-22T19:30:01.200Z,40.40
2022-11-22T19:34:04.158Z,33.77
2022-11-22T19:38:04.358Z,35.83
2022-11-22T19:42:04.585Z,43.87
2022-11-22T19:46:05.453Z,43.77
2022-11-22T19:50:09.371Z,53.73
2022-11-22T19:54:10.741Z,57.57
2022-11-22T19:58:11.018Z,57.83
2022-11-22T20:02:13.586Z,46.73
2022-11-22T20:06:17.317Z,41.97
2022-11-22T20:10:18.782Z,36.77
2022-11-22T20:14:19.137Z,38.47
2022-11-22T20:18:19.353Z,34.03
2022-11-22T20:22:22.165Z,37.37
2022-11-22T20:26:25.308Z,49.90
2022-11-22T20:30:25.474Z,81.03
2022-11-22T20:34:26.073Z,68.33
2022-11-22T20:38:28.958Z,47.07
2022-11-22T20:42:36.456Z,62.97
2022-11-22T20:46:40.511Z,52.07
2022-11-22T20:50:40.830Z,78.70
2022-11-22T20:54:43.656Z,59.87
2022-11-22T20:58:44.153Z,63.13
2022-11-22T21:02:44.459Z,46.23
2022-11-22T21:06:44.665Z,70.00
2022-11-22T21:10:47.551Z,36.93
2022-11-22T21:14:51.322Z,50.57
2022-11-22T21:18:54.419Z,41.73
2022-11-22T21:22:56.506Z,56.23
2022-11-22T21:26:59.262Z,43.37
2022-11-22T21:31:00.410Z,43.87
2022-11-22T21:35:00.808Z,52.37
2022-11-22T21:39:01.245Z,39.83
2022-11-22T21:43:04.061Z,40.13
2022-11-22T21:47:04.828Z,45.00
2022-11-22T21:51:13.577Z,58.97
2022-11-22T21:55:22.627Z,43.90
2022-11-22T21:59:25.756Z,42.23
2022-11-22T22:03:27.440Z,60.70
2022-11-22T22:07:51.528Z,50.73
2022-11-22T22:11:49.063Z,50.07
2022-11-22T22:15:52.099Z,44.03
2022-11-22T22:19:52.501Z,41.67
2022-11-22T22:23:53.577Z,36.00
2022-11-22T22:27:53.944Z,45.37
2022-11-22T22:31:56.804Z,39.87
2022-11-22T22:35:59.868Z,36.13
2022-11-22T22:40:20.572Z,38.70
2022-11-22T22:44:23.389Z,47.03
2022-11-22T22:48:26.689Z,40.00
2022-11-22T22:52:27.367Z,36.27
2022-11-22T22:56:28.178Z,35.43
2022-11-22T23:00:28.556Z,39.23
2022-11-22T23:04:31.723Z,40.90
2022-11-22T23:08:31.878Z,35.40
2022-11-22T23:12:32.191Z,38.47
2022-11-22T23:16:32.554Z,36.40
2022-11-22T23:20:35.284Z,34.57
2022-11-22T23:24:36.303Z,36.77
2022-11-22T23:28:36.756Z,35.33
2022-11-22T23:32:37.013Z,35.50
2022-11-22T23:36:41.233Z,35.57
2022-11-22T23:40:41.498Z,45.50
2022-11-22T23:44:41.855Z,31.60
2022-11-22T23:48:41.988Z,35.80
2022-11-22T23:52:44.668Z,32.40
2022-11-22T23:56:45.469Z,35.80
